createdAt,value
2023-02-15T00:01:42.235Z,2.10
2023-02-15T00:04:10.560Z,1.70
2023-02-15T00:06:37.581Z,1.63
2023-02-15T00:09:04.952Z,1.60
2023-02-15T00:11:41.129Z,1.67
2023-02-15T00:14:17.232Z,1.55
2023-02-15T00:16:45.317Z,1.70
2023-02-15T00:19:14.202Z,1.80
2023-02-15T00:21:41.965Z,1.87
2023-02-15T00:24:11.628Z,2.00
2023-02-15T00:26:43.344Z,2.20
2023-02-15T00:29:11.966Z,2.33
2023-02-15T00:31:39.193Z,2.00
2023-02-15T00:34:19.191Z,2.30
2023-02-15T00:36:46.442Z,1.90
2023-02-15T00:39:16.571Z,1.90
2023-02-15T00:41:45.107Z,2.00
2023-02-15T00:44:12.893Z,1.95
2023-02-15T00:46:40.225Z,1.60
2023-02-15T00:49:10.222Z,1.87
2023-02-15T00:51:39.348Z,2.63
2023-02-15T00:54:07.041Z,2.10
2023-02-15T00:56:34.453Z,2.20
2023-02-15T00:59:01.514Z,2.70
2023-02-15T01:01:28.633Z,1.80
2023-02-15T01:03:55.832Z,1.60
2023-02-15T01:06:22.869Z,2.00
2023-02-15T01:08:50.013Z,1.80
2023-02-15T01:11:23.467Z,2.00
2023-02-15T01:13:56.898Z,1.93
2023-02-15T01:16:26.345Z,2.50
2023-02-15T01:18:56.550Z,1.60
2023-02-15T01:21:26.474Z,2.07
2023-02-15T01:23:53.860Z,2.10
2023-02-15T01:26:20.992Z,2.03
2023-02-15T01:28:48.403Z,1.60
2023-02-15T01:31:19.441Z,1.60
2023-02-15T01:33:48.295Z,1.53
2023-02-15T01:36:16.159Z,1.77
2023-02-15T01:38:43.149Z,1.67
2023-02-15T01:41:27.340Z,2.40
2023-02-15T01:43:57.917Z,1.60
2023-02-15T01:46:49.372Z,2.20
2023-02-15T01:49:20.737Z,1.77
2023-02-15T01:51:50.023Z,1.73
2023-02-15T01:54:27.444Z,2.67
2023-02-15T01:56:59.490Z,1.70
2023-02-15T01:59:27.186Z,1.90
2023-02-15T02:01:59.811Z,2.20
2023-02-15T02:04:41.021Z,1.90
2023-02-15T02:07:09.744Z,1.80
2023-02-15T02:09:38.876Z,2.03
2023-02-15T02:12:06.408Z,2.00
2023-02-15T02:14:33.787Z,2.20
2023-02-15T02:17:30.572Z,2.03
2023-02-15T02:20:34.016Z,1.90
2023-02-15T02:23:19.182Z,2.20
2023-02-15T02:26:12.488Z,1.90
2023-02-15T02:28:51.317Z,2.30
2023-02-15T02:31:27.388Z,2.20
2023-02-15T02:34:25.355Z,2.13
2023-02-15T02:37:11.326Z,2.15
2023-02-15T02:39:59.865Z,2.53
2023-02-15T02:42:51.336Z,1.80
2023-02-15T02:45:46.885Z,1.50
2023-02-15T02:48:19.470Z,1.93
2023-02-15T02:50:50.050Z,2.07
2023-02-15T02:53:17.818Z,1.87
2023-02-15T02:56:00.751Z,2.17
2023-02-15T02:58:27.864Z,2.07
2023-02-15T03:00:58.760Z,2.20
2023-02-15T03:03:34.235Z,2.30
2023-02-15T03:06:07.555Z,2.27
2023-02-15T03:08:39.471Z,1.80
2023-02-15T03:11:06.927Z,2.17
2023-02-15T03:13:35.190Z,1.90
2023-02-15T03:16:24.791Z,1.90
2023-02-15T03:19:14.251Z,2.37
2023-02-15T03:22:04.674Z,2.13
2023-02-15T03:24:39.660Z,2.57
2023-02-15T03:27:18.718Z,2.60
2023-02-15T03:29:50.103Z,2.20
2023-02-15T03:32:18.351Z,3.50
2023-02-15T03:34:46.013Z,3.50
2023-02-15T03:37:31.809Z,2.50
2023-02-15T03:40:26.592Z,2.40
2023-02-15T03:43:13.053Z,2.00
2023-02-15T03:45:55.827Z,2.30
2023-02-15T03:48:27.727Z,2.00
2023-02-15T03:51:20.481Z,2.20
2023-02-15T03:53:49.962Z,1.90
2023-02-15T03:56:16.991Z,2.00
2023-02-15T03:59:02.623Z,1.90
2023-02-15T04:02:04.473Z,2.37
2023-02-15T04:04:42.181Z,1.87
2023-02-15T04:07:10.155Z,1.90
2023-02-15T04:09:56.131Z,1.90
2023-02-15T04:12:23.588Z,1.80
2023-02-15T04:15:09.452Z,1.87
2023-02-15T04:17:38.758Z,2.23
2023-02-15T04:20:24.906Z,2.03
2023-02-15T04:23:10.669Z,2.00
2023-02-15T04:25:37.777Z,2.17
2023-02-15T04:28:04.894Z,2.10
2023-02-15T04:30:31.993Z,2.60
2023-02-15T04:32:58.989Z,1.90
2023-02-15T04:35:26.842Z,1.93
2023-02-15T04:37:53.934Z,2.20
2023-02-15T04:40:21.126Z,2.00
2023-02-15T04:42:51.017Z,2.20
2023-02-15T04:45:18.689Z,2.27
2023-02-15T04:47:46.176Z,2.30
2023-02-15T04:50:13.259Z,2.60
2023-02-15T04:52:40.402Z,2.50
2023-02-15T04:55:08.022Z,1.90
2023-02-15T04:57:35.062Z,2.07
2023-02-15T05:00:02.340Z,2.17
2023-02-15T05:02:32.025Z,1.83
2023-02-15T05:04:59.091Z,1.90
2023-02-15T05:07:26.121Z,2.13
2023-02-15T05:09:53.132Z,2.10
2023-02-15T05:12:20.130Z,2.30
2023-02-15T05:14:47.164Z,1.83
2023-02-15T05:17:14.166Z,2.30
2023-02-15T05:19:41.146Z,1.87
2023-02-15T05:22:08.203Z,2.10
2023-02-15T05:24:53.797Z,1.80
2023-02-15T05:27:39.521Z,2.07
2023-02-15T05:30:12.707Z,1.90
2023-02-15T05:32:40.621Z,1.60
2023-02-15T05:35:08.822Z,2.13
2023-02-15T05:37:35.873Z,1.93
2023-02-15T05:40:02.922Z,2.00
2023-02-15T05:42:31.192Z,2.10
2023-02-15T05:44:58.223Z,2.63
2023-02-15T05:47:25.282Z,2.50
2023-02-15T05:49:52.361Z,2.27
2023-02-15T05:52:19.537Z,2.30
2023-02-15T05:54:46.525Z,2.90
2023-02-15T05:57:13.567Z,2.37
2023-02-15T05:59:40.594Z,2.33
2023-02-15T06:02:07.840Z,2.23
2023-02-15T06:04:34.941Z,2.70
2023-02-15T06:07:01.961Z,2.30
2023-02-15T06:09:28.981Z,2.90
2023-02-15T06:11:58.342Z,2.80
2023-02-15T06:14:25.347Z,3.07
2023-02-15T06:16:52.503Z,3.63
2023-02-15T06:19:20.131Z,3.20
2023-02-15T06:21:47.170Z,2.77
2023-02-15T06:24:14.307Z,2.60
2023-02-15T06:26:41.332Z,2.87
2023-02-15T06:29:08.503Z,2.87
2023-02-15T06:31:35.618Z,2.97
2023-02-15T06:34:02.726Z,3.20
2023-02-15T06:36:30.989Z,3.67
2023-02-15T06:38:58.322Z,2.57
2023-02-15T06:41:25.527Z,2.93
2023-02-15T06:43:52.515Z,2.73
2023-02-15T06:46:19.681Z,2.80
2023-02-15T06:48:46.792Z,2.80
2023-02-15T06:51:13.956Z,2.77
2023-02-15T06:53:43.886Z,2.90
2023-02-15T06:56:12.348Z,2.80
2023-02-15T06:58:40.844Z,3.00
2023-02-15T07:01:09.390Z,3.57
2023-02-15T07:03:36.946Z,3.57
2023-02-15T07:06:07.281Z,3.67
2023-02-15T07:08:34.412Z,3.23
2023-02-15T07:11:20.939Z,3.53
2023-02-15T07:13:48.552Z,3.00
2023-02-15T07:16:15.832Z,3.50
2023-02-15T07:18:42.904Z,3.90
2023-02-15T07:21:10.041Z,3.20
2023-02-15T07:23:38.571Z,2.80
2023-02-15T07:26:07.020Z,3.00
2023-02-15T07:28:35.192Z,2.90
2023-02-15T07:31:04.201Z,2.87
2023-02-15T07:33:32.420Z,2.33
2023-02-15T07:36:03.324Z,3.40
2023-02-15T07:38:36.081Z,2.57
2023-02-15T07:41:06.236Z,3.00
2023-02-15T07:43:35.844Z,3.37
2023-02-15T07:46:11.054Z,3.10
2023-02-15T07:48:39.506Z,3.00
2023-02-15T07:51:09.890Z,2.77
2023-02-15T07:53:37.892Z,3.43
2023-02-15T07:56:13.917Z,3.13
2023-02-15T07:58:53.659Z,3.10
2023-02-15T08:01:23.772Z,3.70
2023-02-15T08:03:51.173Z,3.42
2023-02-15T08:06:18.277Z,3.43
2023-02-15T08:08:45.503Z,3.43
2023-02-15T08:11:37.614Z,2.80
2023-02-15T08:14:10.738Z,3.47
2023-02-15T08:16:43.596Z,4.17
2023-02-15T08:19:15.101Z,3.33
2023-02-15T08:21:44.572Z,3.63
2023-02-15T08:24:13.469Z,4.23
2023-02-15T08:26:42.310Z,4.57
2023-02-15T08:29:10.760Z,4.83
2023-02-15T08:31:38.780Z,5.80
2023-02-15T08:34:06.291Z,3.67
2023-02-15T08:36:33.691Z,4.15
2023-02-15T08:39:02.515Z,3.90
2023-02-15T08:41:31.896Z,3.70
2023-02-15T08:44:01.631Z,3.90
2023-02-15T08:46:31.091Z,4.10
2023-02-15T08:48:58.687Z,3.70
2023-02-15T08:51:34.478Z,4.37
2023-02-15T08:54:06.926Z,4.30
2023-02-15T08:56:40.180Z,4.10
2023-02-15T08:59:08.838Z,4.40
2023-02-15T09:01:36.237Z,3.90
2023-02-15T09:04:06.533Z,3.70
2023-02-15T09:06:33.743Z,3.63
2023-02-15T09:09:00.827Z,4.10
2023-02-15T09:11:30.747Z,3.97
2023-02-15T09:14:03.659Z,4.10
2023-02-15T09:16:33.510Z,2.93
2023-02-15T09:19:05.802Z,3.78
2023-02-15T09:21:37.694Z,3.20
2023-02-15T09:24:08.438Z,3.00
2023-02-15T09:26:38.575Z,3.90
2023-02-15T09:29:05.629Z,3.78
2023-02-15T09:31:38.444Z,3.92
2023-02-15T09:34:05.548Z,3.53
2023-02-15T09:36:38.282Z,3.43
2023-02-15T09:39:10.785Z,3.37
2023-02-15T09:41:46.336Z,3.97
2023-02-15T09:44:13.386Z,3.70
2023-02-15T09:47:02.039Z,3.33
2023-02-15T09:49:55.711Z,3.50
2023-02-15T09:52:37.927Z,3.53
2023-02-15T09:55:26.444Z,3.03
2023-02-15T09:58:06.463Z,2.90
2023-02-15T10:01:01.811Z,3.03
2023-02-15T10:03:53.716Z,3.20
2023-02-15T10:06:25.332Z,3.20
2023-02-15T10:09:12.178Z,2.90
2023-02-15T10:11:44.789Z,3.00
2023-02-15T10:14:20.555Z,3.23
2023-02-15T10:16:57.278Z,2.93
2023-02-15T10:20:06.684Z,4.00
2023-02-15T10:22:51.575Z,3.42
2023-02-15T10:25:27.883Z,4.80
2023-02-15T10:27:54.869Z,4.82
2023-02-15T10:30:43.215Z,3.80
2023-02-15T10:33:39.240Z,4.40
2023-02-15T10:36:22.685Z,4.75
2023-02-15T10:39:19.844Z,4.47
2023-02-15T10:42:28.264Z,3.87
2023-02-15T10:45:13.681Z,3.80
2023-02-15T10:47:55.865Z,3.40
2023-02-15T10:50:34.832Z,3.10
2023-02-15T10:53:07.689Z,3.25
2023-02-15T10:55:52.832Z,3.10
2023-02-15T10:58:48.779Z,2.50
2023-02-15T11:01:25.207Z,2.20
2023-02-15T11:04:40.761Z,2.65
2023-02-15T11:07:30.413Z,2.42
2023-02-15T11:10:34.181Z,2.10
2023-02-15T11:13:10.267Z,2.50
2023-02-15T11:15:56.415Z,2.20
2023-02-15T11:18:37.150Z,2.60
2023-02-15T11:21:12.880Z,2.70
2023-02-15T11:23:48.571Z,2.90
2023-02-15T11:26:47.945Z,3.03
2023-02-15T11:29:26.676Z,3.28
2023-02-15T11:31:57.962Z,3.70
2023-02-15T11:34:37.703Z,3.20
2023-02-15T11:37:14.224Z,2.70
2023-02-15T11:39:41.457Z,2.90
2023-02-15T11:42:15.529Z,4.50
2023-02-15T11:45:05.592Z,4.23
2023-02-15T11:47:32.552Z,3.80
2023-02-15T11:50:01.568Z,3.90
2023-02-15T11:52:30.164Z,3.53
2023-02-15T11:54:57.260Z,3.47
2023-02-15T11:57:41.567Z,2.87
2023-02-15T12:00:15.687Z,3.13
2023-02-15T12:02:50.316Z,2.93
2023-02-15T12:05:23.409Z,3.80
2023-02-15T12:08:05.106Z,3.60
2023-02-15T12:10:50.196Z,2.50
2023-02-15T12:13:20.421Z,2.70
2023-02-15T12:15:51.149Z,2.13
2023-02-15T12:18:40.643Z,2.43
2023-02-15T12:21:14.636Z,2.50
2023-02-15T12:23:49.850Z,2.27
2023-02-15T12:26:35.380Z,2.50
2023-02-15T12:29:13.982Z,2.10
2023-02-15T12:31:44.923Z,2.13
2023-02-15T12:34:27.740Z,1.90
2023-02-15T12:37:01.416Z,2.00
2023-02-15T12:39:33.402Z,1.70
2023-02-15T12:42:04.668Z,2.07
2023-02-15T12:44:35.673Z,1.87
2023-02-15T12:47:02.800Z,2.27
2023-02-15T12:49:35.070Z,2.20
2023-02-15T12:52:07.885Z,2.03
2023-02-15T12:54:42.018Z,1.90
2023-02-15T12:57:16.701Z,2.13
2023-02-15T13:00:00.516Z,2.03
2023-02-15T13:02:44.564Z,2.00
2023-02-15T13:05:30.241Z,1.77
2023-02-15T13:08:05.058Z,1.80
2023-02-15T13:10:40.775Z,1.70
2023-02-15T13:13:13.138Z,2.00
2023-02-15T13:15:42.192Z,1.90
2023-02-15T13:18:18.206Z,2.00
2023-02-15T13:20:46.353Z,1.90
2023-02-15T13:23:30.118Z,2.10
2023-02-15T13:26:00.722Z,2.07
2023-02-15T13:28:49.736Z,2.30
2023-02-15T13:31:20.599Z,2.13
2023-02-15T13:34:11.185Z,2.97
2023-02-15T13:36:59.017Z,2.40
2023-02-15T13:39:41.949Z,2.33
2023-02-15T13:42:31.869Z,2.20
2023-02-15T13:45:23.409Z,2.77
2023-02-15T13:48:11.647Z,2.30
2023-02-15T13:51:13.946Z,2.90
2023-02-15T13:53:43.838Z,2.80
2023-02-15T13:56:20.882Z,2.50
